sensor_id;sensor_type;location;lat;lon;timestamp;P1;durP1;ratioP1;P2;durP2;ratioP2
36497;SDS011;22513;51.222;6.480;2022-08-30T00:01:32;5.40;;;2.85;;
36497;SDS011;22513;51.222;6.480;2022-08-30T00:03:59;8.02;;;3.40;;
36497;SDS011;22513;51.222;6.480;2022-08-30T00:06:25;4.85;;;2.50;;
36497;SDS011;22513;51.222;6.480;2022-08-30T00:08:52;7.00;;;3.38;;
36497;SDS011;22513;51.222;6.480;2022-08-30T00:11:23;9.02;;;2.78;;
36497;SDS011;22513;51.222;6.480;2022-08-30T00:13:52;6.15;;;2.75;;
36497;SDS011;22513;51.222;6.480;2022-08-30T00:16:19;9.38;;;3.13;;
36497;SDS011;22513;51.222;6.480;2022-08-30T00:18:46;4.57;;;3.03;;
36497;SDS011;22513;51.222;6.480;2022-08-30T00:21:12;6.75;;;3.10;;
36497;SDS011;22513;51.222;6.480;2022-08-30T00:23:38;9.32;;;2.70;;
36497;SDS011;22513;51.222;6.480;2022-08-30T00:26:04;5.60;;;2.80;;
36497;SDS011;22513;51.222;6.480;2022-08-30T00:28:31;8.35;;;3.40;;
36497;SDS011;22513;51.222;6.480;2022-08-30T00:30:58;7.10;;;3.40;;
36497;SDS011;22513;51.222;6.480;2022-08-30T00:33:26;7.05;;;3.10;;
36497;SDS011;22513;51.222;6.480;2022-08-30T00:35:51;14.07;;;3.90;;
36497;SDS011;22513;51.222;6.480;2022-08-30T00:38:17;5.90;;;3.10;;
36497;SDS011;22513;51.222;6.480;2022-08-30T00:40:43;9.35;;;3.40;;
36497;SDS011;22513;51.222;6.480;2022-08-30T00:43:12;6.53;;;2.88;;
36497;SDS011;22513;51.222;6.480;2022-08-30T00:45:41;5.32;;;3.20;;
36497;SDS011;22513;51.222;6.480;2022-08-30T00:48:07;7.00;;;3.42;;
36497;SDS011;22513;51.222;6.480;2022-08-30T00:50:35;5.75;;;3.72;;
36497;SDS011;22513;51.222;6.480;2022-08-30T00:53:05;8.75;;;4.13;;
36497;SDS011;22513;51.222;6.480;2022-08-30T00:55:37;8.02;;;3.40;;
36497;SDS011;22513;51.222;6.480;2022-08-30T00:58:05;9.60;;;3.85;;
36497;SDS011;22513;51.222;6.480;2022-08-30T01:00:34;8.27;;;3.75;;
36497;SDS011;22513;51.222;6.480;2022-08-30T01:03:00;8.73;;;3.80;;
36497;SDS011;22513;51.222;6.480;2022-08-30T01:05:26;5.93;;;3.00;;
36497;SDS011;22513;51.222;6.480;2022-08-30T01:07:51;7.25;;;3.15;;
36497;SDS011;22513;51.222;6.480;2022-08-30T01:10:17;9.95;;;3.83;;
36497;SDS011;22513;51.222;6.480;2022-08-30T01:12:43;6.05;;;4.22;;
36497;SDS011;22513;51.222;6.480;2022-08-30T01:15:10;7.97;;;3.38;;
36497;SDS011;22513;51.222;6.480;2022-08-30T01:17:38;7.65;;;3.13;;
36497;SDS011;22513;51.222;6.480;2022-08-30T01:25:11;6.57;;;3.63;;
36497;SDS011;22513;51.222;6.480;2022-08-30T01:27:40;6.75;;;4.00;;
36497;SDS011;22513;51.222;6.480;2022-08-30T01:30:09;6.25;;;4.07;;
36497;SDS011;22513;51.222;6.480;2022-08-30T01:32:40;7.53;;;4.03;;
36497;SDS011;22513;51.222;6.480;2022-08-30T01:35:08;8.43;;;3.50;;
36497;SDS011;22513;51.222;6.480;2022-08-30T01:37:35;5.68;;;3.60;;
36497;SDS011;22513;51.222;6.480;2022-08-30T01:40:02;8.02;;;3.38;;
36497;SDS011;22513;51.222;6.480;2022-08-30T01:42:29;7.22;;;4.10;;
36497;SDS011;22513;51.222;6.480;2022-08-30T01:44:54;6.85;;;3.70;;
36497;SDS011;22513;51.222;6.480;2022-08-30T01:47:20;8.20;;;3.83;;
36497;SDS011;22513;51.222;6.480;2022-08-30T01:49:46;12.07;;;4.13;;
36497;SDS011;22513;51.222;6.480;2022-08-30T01:52:13;7.53;;;3.60;;
36497;SDS011;22513;51.222;6.480;2022-08-30T01:54:40;9.45;;;4.05;;
36497;SDS011;22513;51.222;6.480;2022-08-30T01:57:08;6.05;;;3.72;;
36497;SDS011;22513;51.222;6.480;2022-08-30T01:59:39;7.13;;;4.78;;
36497;SDS011;22513;51.222;6.480;2022-08-30T02:02:08;6.63;;;3.88;;
36497;SDS011;22513;51.222;6.480;2022-08-30T02:04:34;6.70;;;4.10;;
36497;SDS011;22513;51.222;6.480;2022-08-30T02:07:01;5.45;;;4.20;;
36497;SDS011;22513;51.222;6.480;2022-08-30T02:09:27;7.45;;;3.78;;
36497;SDS011;22513;51.222;6.480;2022-08-30T02:11:53;6.80;;;4.00;;
36497;SDS011;22513;51.222;6.480;2022-08-30T02:14:19;5.78;;;3.60;;
36497;SDS011;22513;51.222;6.480;2022-08-30T02:16:44;7.97;;;4.30;;
36497;SDS011;22513;51.222;6.480;2022-08-30T02:19:12;8.15;;;4.53;;
36497;SDS011;22513;51.222;6.480;2022-08-30T02:21:38;7.47;;;4.20;;
36497;SDS011;22513;51.222;6.480;2022-08-30T02:24:03;8.27;;;4.40;;
36497;SDS011;22513;51.222;6.480;2022-08-30T02:26:29;8.10;;;3.55;;
36497;SDS011;22513;51.222;6.480;2022-08-30T02:28:55;7.60;;;4.40;;
36497;SDS011;22513;51.222;6.480;2022-08-30T02:31:21;6.10;;;4.05;;
36497;SDS011;22513;51.222;6.480;2022-08-30T02:33:51;8.40;;;4.07;;
36497;SDS011;22513;51.222;6.480;2022-08-30T02:36:18;7.75;;;4.40;;
36497;SDS011;22513;51.222;6.480;2022-08-30T02:38:45;11.40;;;4.07;;
36497;SDS011;22513;51.222;6.480;2022-08-30T02:41:11;8.07;;;3.80;;
36497;SDS011;22513;51.222;6.480;2022-08-30T02:43:37;5.68;;;3.90;;
36497;SDS011;22513;51.222;6.480;2022-08-30T02:46:02;7.68;;;4.05;;
36497;SDS011;22513;51.222;6.480;2022-08-30T02:48:28;9.10;;;4.57;;
36497;SDS011;22513;51.222;6.480;2022-08-30T02:50:54;8.23;;;4.40;;
36497;SDS011;22513;51.222;6.480;2022-08-30T02:53:20;4.93;;;3.22;;
36497;SDS011;22513;51.222;6.480;2022-08-30T02:55:47;6.05;;;4.13;;
36497;SDS011;22513;51.222;6.480;2022-08-30T02:58:13;8.73;;;4.25;;
36497;SDS011;22513;51.222;6.480;2022-08-30T03:00:39;7.85;;;4.47;;
36497;SDS011;22513;51.222;6.480;2022-08-30T03:03:05;4.68;;;3.88;;
36497;SDS011;22513;51.222;6.480;2022-08-30T03:05:31;8.40;;;4.75;;
36497;SDS011;22513;51.222;6.480;2022-08-30T03:07:57;7.35;;;4.72;;
36497;SDS011;22513;51.222;6.480;2022-08-30T03:10:24;7.63;;;4.18;;
36497;SDS011;22513;51.222;6.480;2022-08-30T03:12:51;7.30;;;4.93;;
36497;SDS011;22513;51.222;6.480;2022-08-30T03:15:18;8.30;;;4.72;;
36497;SDS011;22513;51.222;6.480;2022-08-30T03:17:45;10.02;;;4.82;;
36497;SDS011;22513;51.222;6.480;2022-08-30T03:20:11;12.52;;;4.68;;
36497;SDS011;22513;51.222;6.480;2022-08-30T03:22:38;8.85;;;5.10;;
36497;SDS011;22513;51.222;6.480;2022-08-30T03:25:04;6.53;;;4.05;;
36497;SDS011;22513;51.222;6.480;2022-08-30T03:27:30;7.50;;;4.72;;
36497;SDS011;22513;51.222;6.480;2022-08-30T03:29:56;6.90;;;4.30;;
36497;SDS011;22513;51.222;6.480;2022-08-30T03:32:21;7.00;;;4.40;;
36497;SDS011;22513;51.222;6.480;2022-08-30T03:34:48;6.60;;;4.45;;
36497;SDS011;22513;51.222;6.480;2022-08-30T03:37:14;9.85;;;4.03;;
36497;SDS011;22513;51.222;6.480;2022-08-30T03:39:40;7.22;;;4.18;;
36497;SDS011;22513;51.222;6.480;2022-08-30T03:42:06;7.13;;;4.60;;
36497;SDS011;22513;51.222;6.480;2022-08-30T03:44:32;7.35;;;4.68;;
36497;SDS011;22513;51.222;6.480;2022-08-30T03:46:58;8.05;;;4.45;;
36497;SDS011;22513;51.222;6.480;2022-08-30T03:49:23;10.27;;;4.97;;
36497;SDS011;22513;51.222;6.480;2022-08-30T03:51:49;6.85;;;5.00;;
36497;SDS011;22513;51.222;6.480;2022-08-30T03:54:15;8.10;;;4.60;;
36497;SDS011;22513;51.222;6.480;2022-08-30T03:56:41;6.32;;;4.38;;
36497;SDS011;22513;51.222;6.480;2022-08-30T03:59:07;8.82;;;4.50;;
36497;SDS011;22513;51.222;6.480;2022-08-30T04:01:33;6.53;;;4.53;;
36497;SDS011;22513;51.222;6.480;2022-08-30T04:03:59;7.60;;;4.35;;
36497;SDS011;22513;51.222;6.480;2022-08-30T04:06:24;8.38;;;5.00;;
36497;SDS011;22513;51.222;6.480;2022-08-30T04:08:51;7.07;;;4.00;;
36497;SDS011;22513;51.222;6.480;2022-08-30T04:11:17;6.90;;;4.70;;
36497;SDS011;22513;51.222;6.480;2022-08-30T04:13:42;8.75;;;4.85;;
36497;SDS011;22513;51.222;6.480;2022-08-30T04:16:08;5.18;;;3.85;;
36497;SDS011;22513;51.222;6.480;2022-08-30T04:18:34;10.32;;;4.57;;
36497;SDS011;22513;51.222;6.480;2022-08-30T04:21:01;8.13;;;4.90;;
36497;SDS011;22513;51.222;6.480;2022-08-30T04:23:27;6.05;;;3.95;;
36497;SDS011;22513;51.222;6.480;2022-08-30T04:25:53;6.97;;;4.63;;
36497;SDS011;22513;51.222;6.480;2022-08-30T04:28:19;7.22;;;4.28;;
36497;SDS011;22513;51.222;6.480;2022-08-30T04:30:45;8.52;;;5.05;;
36497;SDS011;22513;51.222;6.480;2022-08-30T04:33:12;9.25;;;5.65;;
36497;SDS011;22513;51.222;6.480;2022-08-30T04:35:40;7.78;;;4.53;;
36497;SDS011;22513;51.222;6.480;2022-08-30T04:38:06;8.52;;;4.82;;
36497;SDS011;22513;51.222;6.480;2022-08-30T04:40:32;6.07;;;4.80;;
36497;SDS011;22513;51.222;6.480;2022-08-30T04:42:58;7.85;;;4.50;;
36497;SDS011;22513;51.222;6.480;2022-08-30T04:45:24;8.30;;;4.53;;
36497;SDS011;22513;51.222;6.480;2022-08-30T04:47:49;6.03;;;4.00;;
36497;SDS011;22513;51.222;6.480;2022-08-30T04:50:16;5.10;;;4.40;;
36497;SDS011;22513;51.222;6.480;2022-08-30T04:52:43;8.82;;;4.80;;
36497;SDS011;22513;51.222;6.480;2022-08-30T04:55:09;6.38;;;4.68;;
36497;SDS011;22513;51.222;6.480;2022-08-30T04:57:36;7.60;;;4.80;;
36497;SDS011;22513;51.222;6.480;2022-08-30T05:00:04;6.25;;;4.65;;
36497;SDS011;22513;51.222;6.480;2022-08-30T05:02:31;6.80;;;4.37;;
36497;SDS011;22513;51.222;6.480;2022-08-30T05:04:56;9.23;;;4.60;;
36497;SDS011;22513;51.222;6.480;2022-08-30T05:07:41;8.45;;;4.40;;
36497;SDS011;22513;51.222;6.480;2022-08-30T05:10:06;9.00;;;4.60;;
36497;SDS011;22513;51.222;6.480;2022-08-30T05:12:32;7.97;;;4.90;;
36497;SDS011;22513;51.222;6.480;2022-08-30T05:14:58;8.10;;;4.63;;
36497;SDS011;22513;51.222;6.480;2022-08-30T05:17:24;11.27;;;5.43;;
36497;SDS011;22513;51.222;6.480;2022-08-30T05:19:49;7.15;;;5.60;;
36497;SDS011;22513;51.222;6.480;2022-08-30T05:22:15;7.03;;;4.57;;
36497;SDS011;22513;51.222;6.480;2022-08-30T05:24:41;6.05;;;5.03;;
36497;SDS011;22513;51.222;6.480;2022-08-30T05:27:06;7.00;;;4.30;;
36497;SDS011;22513;51.222;6.480;2022-08-30T05:29:32;7.90;;;4.70;;
36497;SDS011;22513;51.222;6.480;2022-08-30T05:31:58;5.07;;;3.88;;
36497;SDS011;22513;51.222;6.480;2022-08-30T05:34:24;6.93;;;4.55;;
36497;SDS011;22513;51.222;6.480;2022-08-30T05:36:50;5.35;;;4.03;;
36497;SDS011;22513;51.222;6.480;2022-08-30T05:39:17;6.07;;;4.05;;
36497;SDS011;22513;51.222;6.480;2022-08-30T05:41:43;7.97;;;4.45;;
36497;SDS011;22513;51.222;6.480;2022-08-30T05:44:08;6.40;;;4.30;;
36497;SDS011;22513;51.222;6.480;2022-08-30T05:46:34;4.40;;;3.40;;
36497;SDS011;22513;51.222;6.480;2022-08-30T05:49:01;7.35;;;4.50;;
36497;SDS011;22513;51.222;6.480;2022-08-30T05:51:29;11.80;;;4.22;;
36497;SDS011;22513;51.222;6.480;2022-08-30T05:53:57;5.38;;;3.78;;
36497;SDS011;22513;51.222;6.480;2022-08-30T05:56:24;8.50;;;3.88;;
36497;SDS011;22513;51.222;6.480;2022-08-30T05:58:52;6.72;;;3.88;;
36497;SDS011;22513;51.222;6.480;2022-08-30T06:03:58;8.55;;;3.85;;
36497;SDS011;22513;51.222;6.480;2022-08-30T06:06:25;6.05;;;3.90;;
36497;SDS011;22513;51.222;6.480;2022-08-30T06:08:52;6.75;;;3.53;;
36497;SDS011;22513;51.222;6.480;2022-08-30T06:11:19;7.13;;;3.67;;
36497;SDS011;22513;51.222;6.480;2022-08-30T06:13:47;9.20;;;3.63;;
36497;SDS011;22513;51.222;6.480;2022-08-30T06:16:14;8.27;;;3.85;;
36497;SDS011;22513;51.222;6.480;2022-08-30T06:18:41;7.60;;;3.97;;
36497;SDS011;22513;51.222;6.480;2022-08-30T06:21:07;6.95;;;4.05;;
36497;SDS011;22513;51.222;6.480;2022-08-30T06:23:39;6.35;;;3.75;;
36497;SDS011;22513;51.222;6.480;2022-08-30T06:26:05;6.78;;;3.47;;
36497;SDS011;22513;51.222;6.480;2022-08-30T06:28:31;8.05;;;3.33;;
36497;SDS011;22513;51.222;6.480;2022-08-30T06:30:58;8.88;;;3.67;;
36497;SDS011;22513;51.222;6.480;2022-08-30T06:33:23;6.95;;;3.97;;
36497;SDS011;22513;51.222;6.480;2022-08-30T06:35:49;9.50;;;3.83;;
36497;SDS011;22513;51.222;6.480;2022-08-30T06:38:15;6.78;;;3.70;;
36497;SDS011;22513;51.222;6.480;2022-08-30T06:40:41;9.57;;;4.22;;
36497;SDS011;22513;51.222;6.480;2022-08-30T06:43:06;11.07;;;4.00;;
36497;SDS011;22513;51.222;6.480;2022-08-30T06:45:32;8.43;;;3.78;;
36497;SDS011;22513;51.222;6.480;2022-08-30T06:47:58;7.40;;;3.30;;
36497;SDS011;22513;51.222;6.480;2022-08-30T06:50:24;8.20;;;3.50;;
36497;SDS011;22513;51.222;6.480;2022-08-30T06:52:50;6.50;;;3.30;;
36497;SDS011;22513;51.222;6.480;2022-08-30T06:55:16;10.18;;;3.70;;
36497;SDS011;22513;51.222;6.480;2022-08-30T06:57:42;4.63;;;2.97;;
36497;SDS011;22513;51.222;6.480;2022-08-30T07:00:09;6.15;;;3.22;;
36497;SDS011;22513;51.222;6.480;2022-08-30T07:02:37;8.77;;;3.40;;
36497;SDS011;22513;51.222;6.480;2022-08-30T07:05:03;4.30;;;3.00;;
36497;SDS011;22513;51.222;6.480;2022-08-30T07:07:30;6.72;;;3.17;;
36497;SDS011;22513;51.222;6.480;2022-08-30T07:09:56;4.97;;;3.45;;
36497;SDS011;22513;51.222;6.480;2022-08-30T07:12:21;6.88;;;3.65;;
36497;SDS011;22513;51.222;6.480;2022-08-30T07:14:47;6.18;;;3.97;;
36497;SDS011;22513;51.222;6.480;2022-08-30T07:17:13;6.80;;;3.67;;
36497;SDS011;22513;51.222;6.480;2022-08-30T07:20:11;8.05;;;4.05;;
36497;SDS011;22513;51.222;6.480;2022-08-30T07:22:37;8.68;;;3.45;;
36497;SDS011;22513;51.222;6.480;2022-08-30T07:25:03;8.43;;;3.30;;
36497;SDS011;22513;51.222;6.480;2022-08-30T07:27:29;5.82;;;3.53;;
36497;SDS011;22513;51.222;6.480;2022-08-30T07:29:55;9.43;;;3.80;;
36497;SDS011;22513;51.222;6.480;2022-08-30T07:32:22;6.60;;;3.90;;
36497;SDS011;22513;51.222;6.480;2022-08-30T07:34:48;15.10;;;4.30;;
36497;SDS011;22513;51.222;6.480;2022-08-30T07:37:13;6.50;;;3.80;;
36497;SDS011;22513;51.222;6.480;2022-08-30T07:39:39;4.78;;;3.53;;
36497;SDS011;22513;51.222;6.480;2022-08-30T07:42:05;6.68;;;3.80;;
36497;SDS011;22513;51.222;6.480;2022-08-30T07:44:30;4.70;;;3.35;;
36497;SDS011;22513;51.222;6.480;2022-08-30T07:46:56;7.22;;;4.00;;
36497;SDS011;22513;51.222;6.480;2022-08-30T07:49:22;4.82;;;4.03;;
36497;SDS011;22513;51.222;6.480;2022-08-30T07:51:50;5.60;;;3.30;;
36497;SDS011;22513;51.222;6.480;2022-08-30T07:54:16;6.90;;;3.65;;
36497;SDS011;22513;51.222;6.480;2022-08-30T07:56:41;7.68;;;3.85;;
36497;SDS011;22513;51.222;6.480;2022-08-30T07:59:07;8.52;;;3.53;;
36497;SDS011;22513;51.222;6.480;2022-08-30T08:01:32;8.98;;;3.83;;
36497;SDS011;22513;51.222;6.480;2022-08-30T08:03:58;7.40;;;3.97;;
36497;SDS011;22513;51.222;6.480;2022-08-30T08:06:24;5.85;;;3.80;;
36497;SDS011;22513;51.222;6.480;2022-08-30T08:08:51;8.77;;;4.00;;
36497;SDS011;22513;51.222;6.480;2022-08-30T08:11:22;7.63;;;3.92;;
36497;SDS011;22513;51.222;6.480;2022-08-30T08:13:49;5.78;;;3.40;;
36497;SDS011;22513;51.222;6.480;2022-08-30T08:16:16;4.55;;;3.58;;
36497;SDS011;22513;51.222;6.480;2022-08-30T08:18:42;7.05;;;3.88;;
36497;SDS011;22513;51.222;6.480;2022-08-30T08:21:07;7.50;;;3.60;;
36497;SDS011;22513;51.222;6.480;2022-08-30T08:23:33;5.55;;;4.00;;
36497;SDS011;22513;51.222;6.480;2022-08-30T08:25:59;7.78;;;3.92;;
36497;SDS011;22513;51.222;6.480;2022-08-30T08:28:25;6.43;;;3.95;;
36497;SDS011;22513;51.222;6.480;2022-08-30T08:30:50;4.95;;;3.33;;
36497;SDS011;22513;51.222;6.480;2022-08-30T08:33:16;7.25;;;3.83;;
36497;SDS011;22513;51.222;6.480;2022-08-30T08:35:43;5.22;;;3.28;;
36497;SDS011;22513;51.222;6.480;2022-08-30T08:38:09;13.18;;;3.72;;
36497;SDS011;22513;51.222;6.480;2022-08-30T08:40:48;8.70;;;3.38;;
36497;SDS011;22513;51.222;6.480;2022-08-30T08:43:27;9.05;;;3.90;;
36497;SDS011;22513;51.222;6.480;2022-08-30T08:46:05;6.70;;;3.33;;
36497;SDS011;22513;51.222;6.480;2022-08-30T08:51:03;5.20;;;3.10;;
36497;SDS011;22513;51.222;6.480;2022-08-30T08:53:57;3.67;;;2.75;;
36497;SDS011;22513;51.222;6.480;2022-08-30T08:56:36;6.38;;;2.80;;
36497;SDS011;22513;51.222;6.480;2022-08-30T08:59:03;5.78;;;2.65;;
36497;SDS011;22513;51.222;6.480;2022-08-30T09:03:58;7.28;;;3.47;;
36497;SDS011;22513;51.222;6.480;2022-08-30T09:09:23;9.57;;;3.10;;
36497;SDS011;22513;51.222;6.480;2022-08-30T09:11:52;8.52;;;3.05;;
36497;SDS011;22513;51.222;6.480;2022-08-30T09:14:19;6.25;;;2.95;;
36497;SDS011;22513;51.222;6.480;2022-08-30T09:16:51;3.78;;;2.75;;
36497;SDS011;22513;51.222;6.480;2022-08-30T09:19:35;5.15;;;3.00;;
36497;SDS011;22513;51.222;6.480;2022-08-30T09:25:08;8.10;;;2.90;;
36497;SDS011;22513;51.222;6.480;2022-08-30T09:32:49;7.32;;;2.85;;
36497;SDS011;22513;51.222;6.480;2022-08-30T09:38:21;6.25;;;3.35;;
36497;SDS011;22513;51.222;6.480;2022-08-30T09:40:53;9.38;;;3.40;;
36497;SDS011;22513;51.222;6.480;2022-08-30T09:54:09;6.05;;;2.80;;
36497;SDS011;22513;51.222;6.480;2022-08-30T09:56:53;5.07;;;2.80;;
36497;SDS011;22513;51.222;6.480;2022-08-30T09:59:58;6.28;;;2.50;;
36497;SDS011;22513;51.222;6.480;2022-08-30T10:16:00;5.18;;;2.13;;
36497;SDS011;22513;51.222;6.480;2022-08-30T10:21:27;5.40;;;2.30;;
36497;SDS011;22513;51.222;6.480;2022-08-30T10:24:10;7.22;;;2.80;;
36497;SDS011;22513;51.222;6.480;2022-08-30T10:31:55;3.47;;;2.63;;
36497;SDS011;22513;51.222;6.480;2022-08-30T10:34:36;6.97;;;2.72;;
36497;SDS011;22513;51.222;6.480;2022-08-30T10:37:27;6.20;;;2.40;;
36497;SDS011;22513;51.222;6.480;2022-08-30T10:39:53;5.88;;;2.83;;
36497;SDS011;22513;51.222;6.480;2022-08-30T10:42:31;3.78;;;2.35;;
36497;SDS011;22513;51.222;6.480;2022-08-30T10:45:00;6.53;;;2.83;;
36497;SDS011;22513;51.222;6.480;2022-08-30T10:47:55;5.03;;;3.03;;
36497;SDS011;22513;51.222;6.480;2022-08-30T10:50:41;6.22;;;2.50;;
36497;SDS011;22513;51.222;6.480;2022-08-30T10:53:12;6.45;;;2.10;;
36497;SDS011;22513;51.222;6.480;2022-08-30T10:55:44;6.22;;;2.20;;
36497;SDS011;22513;51.222;6.480;2022-08-30T10:58:20;4.78;;;2.60;;
36497;SDS011;22513;51.222;6.480;2022-08-30T11:00:53;5.60;;;2.42;;
36497;SDS011;22513;51.222;6.480;2022-08-30T11:14:50;2.70;;;2.03;;
36497;SDS011;22513;51.222;6.480;2022-08-30T11:19:55;3.30;;;2.10;;
36497;SDS011;22513;51.222;6.480;2022-08-30T11:22:26;7.72;;;2.63;;
36497;SDS011;22513;51.222;6.480;2022-08-30T11:27:49;4.43;;;2.08;;
36497;SDS011;22513;51.222;6.480;2022-08-30T11:36:01;3.72;;;2.08;;
36497;SDS011;22513;51.222;6.480;2022-08-30T11:48:53;6.78;;;2.40;;
36497;SDS011;22513;51.222;6.480;2022-08-30T11:54:00;3.03;;;2.05;;
36497;SDS011;22513;51.222;6.480;2022-08-30T11:56:48;7.97;;;1.90;;
36497;SDS011;22513;51.222;6.480;2022-08-30T12:10:58;4.63;;;2.67;;
36497;SDS011;22513;51.222;6.480;2022-08-30T12:18:55;6.82;;;1.73;;
36497;SDS011;22513;51.222;6.480;2022-08-30T12:31:38;2.92;;;1.95;;
36497;SDS011;22513;51.222;6.480;2022-08-30T12:34:04;4.68;;;2.03;;
36497;SDS011;22513;51.222;6.480;2022-08-30T12:36:32;4.85;;;2.22;;
36497;SDS011;22513;51.222;6.480;2022-08-30T12:39:11;3.55;;;1.92;;
36497;SDS011;22513;51.222;6.480;2022-08-30T12:41:39;3.28;;;2.13;;
36497;SDS011;22513;51.222;6.480;2022-08-30T12:44:07;4.22;;;2.20;;
36497;SDS011;22513;51.222;6.480;2022-08-30T12:46:39;4.95;;;2.10;;
36497;SDS011;22513;51.222;6.480;2022-08-30T12:49:05;5.38;;;2.22;;
36497;SDS011;22513;51.222;6.480;2022-08-30T12:51:39;3.25;;;2.17;;
36497;SDS011;22513;51.222;6.480;2022-08-30T12:56:59;5.03;;;2.17;;
36497;SDS011;22513;51.222;6.480;2022-08-30T13:02:19;3.30;;;1.70;;
36497;SDS011;22513;51.222;6.480;2022-08-30T13:04:50;2.67;;;1.92;;
36497;SDS011;22513;51.222;6.480;2022-08-30T13:10:26;4.70;;;2.00;;
36497;SDS011;22513;51.222;6.480;2022-08-30T13:12:58;5.18;;;2.33;;
36497;SDS011;22513;51.222;6.480;2022-08-30T13:15:30;4.55;;;2.17;;
36497;SDS011;22513;51.222;6.480;2022-08-30T13:18:19;4.18;;;1.77;;
36497;SDS011;22513;51.222;6.480;2022-08-30T13:23:48;4.93;;;2.10;;
36497;SDS011;22513;51.222;6.480;2022-08-30T13:26:14;3.78;;;1.98;;
36497;SDS011;22513;51.222;6.480;2022-08-30T13:28:52;6.70;;;2.13;;
36497;SDS011;22513;51.222;6.480;2022-08-30T13:31:20;3.50;;;2.00;;
36497;SDS011;22513;51.222;6.480;2022-08-30T13:33:45;4.93;;;1.83;;
36497;SDS011;22513;51.222;6.480;2022-08-30T13:36:14;2.78;;;1.75;;
36497;SDS011;22513;51.222;6.480;2022-08-30T13:38:40;4.95;;;2.00;;
36497;SDS011;22513;51.222;6.480;2022-08-30T13:41:06;4.18;;;2.22;;
36497;SDS011;22513;51.222;6.480;2022-08-30T13:43:32;4.85;;;1.85;;
36497;SDS011;22513;51.222;6.480;2022-08-30T13:45:57;4.70;;;2.35;;
36497;SDS011;22513;51.222;6.480;2022-08-30T13:48:23;4.85;;;2.25;;
36497;SDS011;22513;51.222;6.480;2022-08-30T13:50:50;2.67;;;1.98;;
36497;SDS011;22513;51.222;6.480;2022-08-30T13:53:17;4.22;;;2.15;;
36497;SDS011;22513;51.222;6.480;2022-08-30T13:55:43;3.17;;;2.10;;
36497;SDS011;22513;51.222;6.480;2022-08-30T13:58:08;3.28;;;2.05;;
36497;SDS011;22513;51.222;6.480;2022-08-30T14:00:35;3.03;;;2.20;;
36497;SDS011;22513;51.222;6.480;2022-08-30T14:03:01;5.03;;;1.92;;
36497;SDS011;22513;51.222;6.480;2022-08-30T14:05:28;10.48;;;2.60;;
36497;SDS011;22513;51.222;6.480;2022-08-30T14:07:59;3.00;;;1.95;;
36497;SDS011;22513;51.222;6.480;2022-08-30T14:10:26;4.10;;;2.40;;
36497;SDS011;22513;51.222;6.480;2022-08-30T14:12:53;3.17;;;2.13;;
36497;SDS011;22513;51.222;6.480;2022-08-30T14:15:19;5.20;;;2.33;;
36497;SDS011;22513;51.222;6.480;2022-08-30T14:17:45;5.13;;;2.63;;
36497;SDS011;22513;51.222;6.480;2022-08-30T14:20:11;4.47;;;2.53;;
36497;SDS011;22513;51.222;6.480;2022-08-30T14:22:37;5.47;;;2.33;;
36497;SDS011;22513;51.222;6.480;2022-08-30T14:25:04;3.85;;;1.80;;
36497;SDS011;22513;51.222;6.480;2022-08-30T14:27:30;6.03;;;2.78;;
36497;SDS011;22513;51.222;6.480;2022-08-30T14:29:56;3.42;;;2.20;;
36497;SDS011;22513;51.222;6.480;2022-08-30T14:32:22;3.17;;;1.92;;
36497;SDS011;22513;51.222;6.480;2022-08-30T14:34:48;6.75;;;2.30;;
36497;SDS011;22513;51.222;6.480;2022-08-30T14:37:14;4.38;;;2.17;;
36497;SDS011;22513;51.222;6.480;2022-08-30T14:39:39;6.05;;;1.95;;
36497;SDS011;22513;51.222;6.480;2022-08-30T14:42:06;7.00;;;2.45;;
36497;SDS011;22513;51.222;6.480;2022-08-30T14:44:32;6.18;;;2.85;;
36497;SDS011;22513;51.222;6.480;2022-08-30T14:46:58;3.25;;;2.28;;
36497;SDS011;22513;51.222;6.480;2022-08-30T14:49:24;3.97;;;2.13;;
36497;SDS011;22513;51.222;6.480;2022-08-30T14:51:53;3.88;;;2.20;;
36497;SDS011;22513;51.222;6.480;2022-08-30T14:54:21;3.97;;;2.25;;
36497;SDS011;22513;51.222;6.480;2022-08-30T14:56:48;5.05;;;1.65;;
36497;SDS011;22513;51.222;6.480;2022-08-30T14:59:14;5.32;;;2.38;;
36497;SDS011;22513;51.222;6.480;2022-08-30T15:01:41;3.75;;;2.38;;
36497;SDS011;22513;51.222;6.480;2022-08-30T15:04:07;5.13;;;2.65;;
36497;SDS011;22513;51.222;6.480;2022-08-30T15:06:36;4.32;;;2.20;;
36497;SDS011;22513;51.222;6.480;2022-08-30T15:09:04;3.60;;;2.05;;
36497;SDS011;22513;51.222;6.480;2022-08-30T15:11:31;7.55;;;2.20;;
36497;SDS011;22513;51.222;6.480;2022-08-30T15:13:57;4.55;;;2.47;;
36497;SDS011;22513;51.222;6.480;2022-08-30T15:16:24;4.53;;;2.40;;
36497;SDS011;22513;51.222;6.480;2022-08-30T15:18:55;4.88;;;2.65;;
36497;SDS011;22513;51.222;6.480;2022-08-30T15:21:25;4.68;;;2.67;;
36497;SDS011;22513;51.222;6.480;2022-08-30T15:23:54;5.85;;;2.55;;
36497;SDS011;22513;51.222;6.480;2022-08-30T15:26:21;5.10;;;2.40;;
36497;SDS011;22513;51.222;6.480;2022-08-30T15:28:48;4.57;;;2.30;;
36497;SDS011;22513;51.222;6.480;2022-08-30T15:31:14;5.65;;;2.70;;
36497;SDS011;22513;51.222;6.480;2022-08-30T15:33:42;5.88;;;2.42;;
36497;SDS011;22513;51.222;6.480;2022-08-30T15:36:08;3.40;;;2.17;;
36497;SDS011;22513;51.222;6.480;2022-08-30T15:38:34;4.93;;;2.40;;
36497;SDS011;22513;51.222;6.480;2022-08-30T15:41:01;3.95;;;2.35;;
36497;SDS011;22513;51.222;6.480;2022-08-30T15:43:29;3.05;;;1.95;;
36497;SDS011;22513;51.222;6.480;2022-08-30T15:45:54;4.65;;;2.35;;
36497;SDS011;22513;51.222;6.480;2022-08-30T15:48:20;3.78;;;2.00;;
36497;SDS011;22513;51.222;6.480;2022-08-30T15:50:55;3.78;;;2.10;;
36497;SDS011;22513;51.222;6.480;2022-08-30T15:53:21;2.90;;;2.28;;
36497;SDS011;22513;51.222;6.480;2022-08-30T15:55:47;2.70;;;2.00;;
36497;SDS011;22513;51.222;6.480;2022-08-30T15:58:13;4.10;;;2.25;;
36497;SDS011;22513;51.222;6.480;2022-08-30T16:00:38;4.35;;;2.45;;
36497;SDS011;22513;51.222;6.480;2022-08-30T16:03:04;5.07;;;2.13;;
36497;SDS011;22513;51.222;6.480;2022-08-30T16:05:30;7.47;;;2.30;;
36497;SDS011;22513;51.222;6.480;2022-08-30T16:07:56;3.15;;;1.73;;
36497;SDS011;22513;51.222;6.480;2022-08-30T16:10:22;4.95;;;2.28;;
36497;SDS011;22513;51.222;6.480;2022-08-30T16:12:47;4.07;;;1.80;;
36497;SDS011;22513;51.222;6.480;2022-08-30T16:15:13;3.78;;;1.92;;
36497;SDS011;22513;51.222;6.480;2022-08-30T16:17:39;2.95;;;2.17;;
36497;SDS011;22513;51.222;6.480;2022-08-30T16:20:04;3.08;;;2.00;;
36497;SDS011;22513;51.222;6.480;2022-08-30T16:22:31;5.07;;;2.50;;
36497;SDS011;22513;51.222;6.480;2022-08-30T16:24:57;2.92;;;1.65;;
36497;SDS011;22513;51.222;6.480;2022-08-30T16:27:22;4.80;;;2.00;;
36497;SDS011;22513;51.222;6.480;2022-08-30T16:29:49;6.50;;;2.33;;
36497;SDS011;22513;51.222;6.480;2022-08-30T16:32:14;3.35;;;2.10;;
36497;SDS011;22513;51.222;6.480;2022-08-30T16:34:40;4.65;;;2.70;;
36497;SDS011;22513;51.222;6.480;2022-08-30T16:37:06;4.78;;;2.17;;
36497;SDS011;22513;51.222;6.480;2022-08-30T16:39:31;5.38;;;1.98;;
36497;SDS011;22513;51.222;6.480;2022-08-30T16:41:57;4.57;;;2.08;;
36497;SDS011;22513;51.222;6.480;2022-08-30T16:44:25;3.65;;;2.33;;
36497;SDS011;22513;51.222;6.480;2022-08-30T16:46:51;3.42;;;2.17;;
36497;SDS011;22513;51.222;6.480;2022-08-30T16:51:46;5.05;;;2.08;;
36497;SDS011;22513;51.222;6.480;2022-08-30T16:54:12;3.80;;;1.73;;
36497;SDS011;22513;51.222;6.480;2022-08-30T16:56:37;4.07;;;1.80;;
36497;SDS011;22513;51.222;6.480;2022-08-30T16:59:03;6.05;;;2.15;;
36497;SDS011;22513;51.222;6.480;2022-08-30T17:01:31;6.22;;;2.42;;
36497;SDS011;22513;51.222;6.480;2022-08-30T17:03:58;2.47;;;2.00;;
36497;SDS011;22513;51.222;6.480;2022-08-30T17:06:24;2.78;;;1.75;;
36497;SDS011;22513;51.222;6.480;2022-08-30T17:08:50;4.30;;;1.90;;